Time;durP1;ratioP1;P1;durP2;ratioP2;P2;SDS_P1;SDS_P2;PMS_P1;PMS_P2;Temp;Humidity;BMP_temperature;BMP_pressure;BME280_temperature;BME280_humidity;BME280_pressure;Samples;Min_cycle;Max_cycle;Signal;HPM_P1;HPM_P2
2023/05/10 00:01:38;;;;;;;4.50;4.10;;;;;;;;;;5045145;28;20041;-65
2023/05/10 00:04:04;;;;;;;3.60;3.33;;;;;;;;;;5044945;28;20049;-65
2023/05/10 00:06:31;;;;;;;3.30;3.00;;;;;;;;;;5045058;28;20076;-65
2023/05/10 00:08:57;;;;;;;3.50;3.20;;;;;;;;;;5025981;28;20049;-65
2023/05/10 00:11:23;;;;;;;2.25;2.13;;;;;;;;;;5047979;28;20048;-65
2023/05/10 00:13:49;;;;;;;2.25;2.10;;;;;;;;;;5044751;28;20060;-65
2023/05/10 00:16:15;;;;;;;2.63;2.42;;;;;;;;;;5027185;28;20037;-65
2023/05/10 00:18:41;;;;;;;2.15;2.05;;;;;;;;;;5045200;28;20044;-65
2023/05/10 00:21:07;;;;;;;3.20;2.90;;;;;;;;;;5024707;28;20048;-65
2023/05/10 00:23:33;;;;;;;2.70;2.50;;;;;;;;;;5044894;28;20090;-65
2023/05/10 00:25:59;;;;;;;4.28;3.97;;;;;;;;;;5043984;28;20053;-65
2023/05/10 00:28:25;;;;;;;3.00;2.80;;;;;;;;;;5044638;28;20040;-65
2023/05/10 00:30:51;;;;;;;4.28;3.05;;;;;;;;;;5029584;28;20056;-65
2023/05/10 00:33:18;;;;;;;3.22;3.03;;;;;;;;;;5044227;28;20533;-65
2023/05/10 00:35:44;;;;;;;2.97;2.78;;;;;;;;;;5045372;28;20084;-65
2023/05/10 00:38:10;;;;;;;3.92;3.63;;;;;;;;;;5044114;28;20534;-65
2023/05/10 00:40:37;;;;;;;3.65;3.35;;;;;;;;;;5044560;28;20233;-65
2023/05/10 00:43:03;;;;;;;2.50;2.30;;;;;;;;;;5043881;28;20151;-65
2023/05/10 00:45:30;;;;;;;1.90;1.80;;;;;;;;;;5044677;28;20041;-66
2023/05/10 00:47:56;;;;;;;1.40;1.30;;;;;;;;;;5024303;28;20065;-65
2023/05/10 00:50:22;;;;;;;1.40;1.33;;;;;;;;;;5043896;28;20081;-65
2023/05/10 00:52:49;;;;;;;1.83;1.73;;;;;;;;;;5026677;28;20041;-65
2023/05/10 00:55:15;;;;;;;1.52;1.42;;;;;;;;;;5044255;28;20045;-65
2023/05/10 00:57:42;;;;;;;2.67;2.47;;;;;;;;;;5043245;28;20514;-65
2023/05/10 01:00:08;;;;;;;2.55;2.42;;;;;;;;;;5044246;28;20045;-65
2023/05/10 01:02:35;;;;;;;2.17;2.08;;;;;;;;;;5043871;28;20033;-65
2023/05/10 01:05:03;;;;;;;2.75;2.55;;;;;;;;;;5043770;28;20403;-65
2023/05/10 01:07:29;;;;;;;2.15;2.05;;;;;;;;;;5026448;28;20045;-65
2023/05/10 01:09:55;;;;;;;2.60;2.40;;;;;;;;;;5024901;28;20160;-65
2023/05/10 01:12:21;;;;;;;2.03;1.92;;;;;;;;;;5044370;28;20037;-65
2023/05/10 01:14:48;;;;;;;2.65;2.45;;;;;;;;;;5025910;28;20556;-65
2023/05/10 01:17:14;;;;;;;2.90;2.70;;;;;;;;;;5043326;28;20051;-65
2023/05/10 01:19:41;;;;;;;2.17;2.00;;;;;;;;;;5044032;28;20070;-65
2023/05/10 01:22:30;;;;;;;2.20;2.10;;;;;;;;;;5043442;28;20045;-65
2023/05/10 01:25:02;;;;;;;3.10;2.90;;;;;;;;;;5022933;28;20045;-65
2023/05/10 01:27:38;;;;;;;4.88;2.83;;;;;;;;;;5026174;28;20053;-65
2023/05/10 01:30:23;;;;;;;3.10;2.90;;;;;;;;;;5043589;28;20388;-65
2023/05/10 01:33:01;;;;;;;2.88;2.67;;;;;;;;;;5043700;28;20079;-65
2023/05/10 01:35:33;;;;;;;2.90;2.70;;;;;;;;;;5043315;28;20098;-65
2023/05/10 01:38:15;;;;;;;2.50;2.40;;;;;;;;;;5041215;28;20059;-65
2023/05/10 01:40:41;;;;;;;3.70;3.40;;;;;;;;;;5026238;28;20405;-65
2023/05/10 01:43:11;;;;;;;3.05;2.85;;;;;;;;;;5042949;28;20139;-65
2023/05/10 01:45:40;;;;;;;3.63;3.33;;;;;;;;;;5024494;28;20131;-65
2023/05/10 01:48:10;;;;;;;2.60;2.40;;;;;;;;;;5024529;28;20696;-65
2023/05/10 01:50:38;;;;;;;2.28;2.17;;;;;;;;;;5025620;28;20171;-64
2023/05/10 01:53:07;;;;;;;2.85;2.65;;;;;;;;;;5042813;28;20044;-65
2023/05/10 01:55:34;;;;;;;3.67;3.47;;;;;;;;;;5025226;28;20060;-65
2023/05/10 01:58:07;;;;;;;3.13;2.70;;;;;;;;;;5043107;28;20044;-65
2023/05/10 02:00:35;;;;;;;2.40;2.20;;;;;;;;;;5024892;28;20048;-65
2023/05/10 02:03:04;;;;;;;2.05;1.67;;;;;;;;;;5043075;28;20438;-65
2023/05/10 02:05:32;;;;;;;1.60;1.50;;;;;;;;;;5043005;28;20045;-65
2023/05/10 02:08:00;;;;;;;1.90;1.80;;;;;;;;;;5042879;28;20372;-65
2023/05/10 02:10:26;;;;;;;2.78;2.05;;;;;;;;;;5023627;28;20040;-65
2023/05/10 02:12:54;;;;;;;2.25;2.13;;;;;;;;;;5024507;28;20052;-65
2023/05/10 02:15:22;;;;;;;1.73;1.63;;;;;;;;;;5043255;28;20671;-65
2023/05/10 02:17:48;;;;;;;2.20;2.10;;;;;;;;;;5043278;28;20068;-65
2023/05/10 02:20:16;;;;;;;3.17;2.97;;;;;;;;;;5041719;28;20041;-65
2023/05/10 02:22:43;;;;;;;3.08;2.78;;;;;;;;;;5026732;28;20048;-65
2023/05/10 02:25:10;;;;;;;2.70;2.50;;;;;;;;;;5042971;28;20077;-64
2023/05/10 02:27:37;;;;;;;2.65;2.42;;;;;;;;;;5043317;28;20446;-65
2023/05/10 02:30:03;;;;;;;3.15;2.80;;;;;;;;;;5024884;28;20051;-65
2023/05/10 02:32:30;;;;;;;2.20;2.00;;;;;;;;;;5043316;28;20152;-65
2023/05/10 02:34:57;;;;;;;3.13;2.67;;;;;;;;;;5024293;28;20045;-65
2023/05/10 02:37:23;;;;;;;2.25;2.13;;;;;;;;;;5025100;28;20400;-65
2023/05/10 02:39:54;;;;;;;2.65;2.45;;;;;;;;;;5025056;28;20044;-65
2023/05/10 02:42:22;;;;;;;3.05;2.80;;;;;;;;;;5024819;28;20049;-65
2023/05/10 02:44:49;;;;;;;3.17;2.83;;;;;;;;;;5028653;28;20048;-65
2023/05/10 02:47:15;;;;;;;2.67;2.47;;;;;;;;;;5046346;28;20125;-65
2023/05/10 02:49:42;;;;;;;1.90;1.80;;;;;;;;;;5031218;28;20075;-65
2023/05/10 02:52:11;;;;;;;2.17;1.98;;;;;;;;;;5046460;28;20529;-65
2023/05/10 02:54:44;;;;;;;4.00;3.60;;;;;;;;;;5045572;28;20048;-65
2023/05/10 02:57:11;;;;;;;3.65;3.35;;;;;;;;;;5028745;28;20053;-65
2023/05/10 02:59:37;;;;;;;4.28;3.88;;;;;;;;;;5045699;28;20048;-65
2023/05/10 03:02:04;;;;;;;3.22;2.92;;;;;;;;;;5028038;28;20049;-65
2023/05/10 03:04:30;;;;;;;3.35;3.05;;;;;;;;;;5046493;28;20045;-65
2023/05/10 03:06:56;;;;;;;2.88;2.67;;;;;;;;;;5046031;28;20118;-65
2023/05/10 03:09:22;;;;;;;2.63;2.42;;;;;;;;;;5045945;28;20120;-65
2023/05/10 03:12:02;;;;;;;3.70;3.40;;;;;;;;;;5046603;28;20119;-65
2023/05/10 03:14:40;;;;;;;3.40;3.10;;;;;;;;;;5026744;28;20057;-65
2023/05/10 03:17:12;;;;;;;2.75;2.55;;;;;;;;;;5044201;28;20495;-65
2023/05/10 03:19:55;;;;;;;2.90;2.60;;;;;;;;;;5027768;28;20068;-65
2023/05/10 03:22:24;;;;;;;3.10;2.80;;;;;;;;;;5046091;28;20044;-65
2023/05/10 03:24:50;;;;;;;2.40;2.20;;;;;;;;;;5045867;28;20088;-65
2023/05/10 03:27:16;;;;;;;4.50;3.30;;;;;;;;;;5027203;28;20109;-65
2023/05/10 03:29:42;;;;;;;2.85;2.60;;;;;;;;;;5045589;28;20131;-65
2023/05/10 03:32:08;;;;;;;4.32;3.15;;;;;;;;;;5027064;28;20494;-65
2023/05/10 03:34:36;;;;;;;2.50;2.30;;;;;;;;;;5027883;28;20040;-65
2023/05/10 03:37:02;;;;;;;2.08;1.98;;;;;;;;;;5027263;28;20076;-65
2023/05/10 03:39:28;;;;;;;1.60;1.50;;;;;;;;;;5027771;28;20542;-65
2023/05/10 03:41:54;;;;;;;2.00;1.80;;;;;;;;;;5027815;28;20578;-65
2023/05/10 03:44:20;;;;;;;1.50;1.38;;;;;;;;;;5027694;28;20049;-65
2023/05/10 03:46:46;;;;;;;1.05;1.00;;;;;;;;;;5028056;28;20049;-65
2023/05/10 03:49:12;;;;;;;0.95;0.80;;;;;;;;;;5045783;28;20158;-65
2023/05/10 03:51:38;;;;;;;0.75;0.75;;;;;;;;;;5027329;28;20405;-65
2023/05/10 03:54:04;;;;;;;0.90;0.90;;;;;;;;;;5026744;28;20049;-65
2023/05/10 03:56:30;;;;;;;0.70;0.70;;;;;;;;;;5045605;28;20048;-65
2023/05/10 03:58:56;;;;;;;0.60;0.60;;;;;;;;;;5026777;28;20045;-65
2023/05/10 04:01:22;;;;;;;1.98;0.52;;;;;;;;;;5045686;28;20041;-65
2023/05/10 04:03:48;;;;;;;0.40;0.40;;;;;;;;;;5027700;28;20067;-65
2023/05/10 04:06:14;;;;;;;0.40;0.40;;;;;;;;;;5045182;28;20479;-65
2023/05/10 04:08:40;;;;;;;0.50;0.50;;;;;;;;;;5046537;28;20045;-65
2023/05/10 04:11:10;;;;;;;0.47;0.40;;;;;;;;;;5044149;28;20048;-65
2023/05/10 04:13:36;;;;;;;0.57;0.40;;;;;;;;;;5026904;28;20069;-65
2023/05/10 04:16:02;;;;;;;0.35;0.35;;;;;;;;;;5042845;28;20079;-65
2023/05/10 04:18:28;;;;;;;0.28;0.28;;;;;;;;;;5028827;28;20033;-65
2023/05/10 04:20:54;;;;;;;0.90;0.32;;;;;;;;;;5047056;28;20046;-65
2023/05/10 04:23:20;;;;;;;0.20;0.20;;;;;;;;;;5027409;28;20064;-65
2023/05/10 04:25:46;;;;;;;0.20;0.20;;;;;;;;;;5043897;28;20499;-65
2023/05/10 04:28:12;;;;;;;0.20;0.20;;;;;;;;;;5044983;28;20052;-65
2023/05/10 04:30:38;;;;;;;0.10;0.10;;;;;;;;;;5044970;28;20053;-65
2023/05/10 04:33:04;;;;;;;0.30;0.30;;;;;;;;;;5044216;28;20396;-65
2023/05/10 04:35:30;;;;;;;0.17;0.17;;;;;;;;;;5027510;28;20040;-65
2023/05/10 04:37:56;;;;;;;1.60;0.47;;;;;;;;;;5029010;28;20614;-65
2023/05/10 04:40:22;;;;;;;0.30;0.30;;;;;;;;;;5044763;28;20045;-65
2023/05/10 04:42:48;;;;;;;0.32;0.32;;;;;;;;;;5045109;28;20037;-65
2023/05/10 04:45:15;;;;;;;1.00;0.90;;;;;;;;;;5044960;28;20041;-65
2023/05/10 04:47:41;;;;;;;1.00;0.85;;;;;;;;;;5043117;28;20053;-65
2023/05/10 04:50:07;;;;;;;0.63;0.63;;;;;;;;;;5027068;28;20075;-65
2023/05/10 04:52:33;;;;;;;0.60;0.60;;;;;;;;;;5026467;28;20048;-65
2023/05/10 04:54:59;;;;;;;0.50;0.50;;;;;;;;;;5025508;28;20103;-65
2023/05/10 04:57:25;;;;;;;0.47;0.47;;;;;;;;;;5026438;28;20044;-65
2023/05/10 04:59:51;;;;;;;0.70;0.70;;;;;;;;;;5027367;28;20052;-65
2023/05/10 05:02:17;;;;;;;0.70;0.70;;;;;;;;;;5043890;28;20047;-65
2023/05/10 05:04:43;;;;;;;0.82;0.82;;;;;;;;;;5044511;28;20037;-65
2023/05/10 05:07:10;;;;;;;1.02;0.95;;;;;;;;;;5025017;28;20049;-65
2023/05/10 05:09:36;;;;;;;0.70;0.70;;;;;;;;;;5044331;28;20063;-65
2023/05/10 05:12:02;;;;;;;0.82;0.77;;;;;;;;;;5044342;28;20049;-65
2023/05/10 05:14:28;;;;;;;0.65;0.60;;;;;;;;;;5044067;28;20047;-65
2023/05/10 05:16:54;;;;;;;0.43;0.43;;;;;;;;;;5025190;28;20075;-65
2023/05/10 05:19:20;;;;;;;0.70;0.70;;;;;;;;;;5043742;28;20767;-65
2023/05/10 05:21:46;;;;;;;0.40;0.40;;;;;;;;;;5026480;28;20045;-66
2023/05/10 05:24:12;;;;;;;1.00;0.80;;;;;;;;;;5026687;28;20045;-65
2023/05/10 05:26:38;;;;;;;0.80;0.80;;;;;;;;;;5043927;28;20098;-66
2023/05/10 05:29:04;;;;;;;1.42;1.00;;;;;;;;;;5043706;28;20095;-66
2023/05/10 05:31:30;;;;;;;0.40;0.40;;;;;;;;;;5042192;28;20036;-66
2023/05/10 05:33:56;;;;;;;0.40;0.40;;;;;;;;;;5025767;28;20064;-66
2023/05/10 05:36:22;;;;;;;0.40;0.40;;;;;;;;;;5043680;28;20091;-66
2023/05/10 05:38:48;;;;;;;0.40;0.40;;;;;;;;;;5026914;28;20049;-66
2023/05/10 05:41:14;;;;;;;0.40;0.40;;;;;;;;;;5044046;28;20052;-66
2023/05/10 05:43:40;;;;;;;0.50;0.50;;;;;;;;;;5024935;28;20136;-66
2023/05/10 05:46:06;;;;;;;0.43;0.30;;;;;;;;;;5042189;28;20129;-66
2023/05/10 05:48:32;;;;;;;0.30;0.30;;;;;;;;;;5043373;28;20399;-66
2023/05/10 05:50:59;;;;;;;0.55;0.45;;;;;;;;;;5042430;28;20051;-66
2023/05/10 05:53:25;;;;;;;0.20;0.20;;;;;;;;;;5044475;28;20033;-66
2023/05/10 05:55:52;;;;;;;0.30;0.30;;;;;;;;;;5043642;28;20056;-66
2023/05/10 05:58:18;;;;;;;0.20;0.20;;;;;;;;;;5042274;28;20039;-66
2023/05/10 06:00:44;;;;;;;0.20;0.20;;;;;;;;;;5024518;28;20133;-66
2023/05/10 06:03:10;;;;;;;0.20;0.20;;;;;;;;;;5042959;28;20119;-66
2023/05/10 06:05:36;;;;;;;0.20;0.20;;;;;;;;;;5043868;28;20410;-66
2023/05/10 06:08:02;;;;;;;0.10;0.10;;;;;;;;;;5025775;28;20052;-66
2023/05/10 06:10:28;;;;;;;0.20;0.20;;;;;;;;;;5025416;28;20045;-66
2023/05/10 06:12:54;;;;;;;0.10;0.10;;;;;;;;;;5042541;28;20045;-66
2023/05/10 06:15:21;;;;;;;0.28;0.28;;;;;;;;;;5042688;28;20075;-66
2023/05/10 06:17:48;;;;;;;0.40;0.40;;;;;;;;;;5045252;28;20094;-66
2023/05/10 06:20:15;;;;;;;1.30;1.20;;;;;;;;;;5029764;28;20126;-66
2023/05/10 06:22:41;;;;;;;0.85;0.85;;;;;;;;;;5047156;28;20029;-66
2023/05/10 06:25:07;;;;;;;1.45;1.35;;;;;;;;;;5028738;28;20428;-66
2023/05/10 06:27:33;;;;;;;1.70;1.60;;;;;;;;;;5028913;28;20076;-66
2023/05/10 06:30:00;;;;;;;1.17;1.15;;;;;;;;;;5046881;28;20089;-66
2023/05/10 06:32:26;;;;;;;1.48;1.38;;;;;;;;;;5028961;28;20045;-66
2023/05/10 06:34:52;;;;;;;1.55;1.45;;;;;;;;;;5046749;28;20124;-66
2023/05/10 06:37:18;;;;;;;1.60;1.50;;;;;;;;;;5048087;28;20120;-66
2023/05/10 06:39:44;;;;;;;0.98;0.98;;;;;;;;;;5047544;28;20041;-66
2023/05/10 06:42:10;;;;;;;1.00;1.00;;;;;;;;;;5048173;28;20059;-66
2023/05/10 06:44:36;;;;;;;0.70;0.70;;;;;;;;;;5029344;28;20049;-66
2023/05/10 06:47:02;;;;;;;1.25;0.98;;;;;;;;;;5045459;28;20045;-66
2023/05/10 06:49:28;;;;;;;0.60;0.60;;;;;;;;;;5031891;28;20073;-66
2023/05/10 06:51:55;;;;;;;0.93;0.55;;;;;;;;;;5029708;28;20052;-66
2023/05/10 06:54:21;;;;;;;0.50;0.50;;;;;;;;;;5048036;28;20087;-65
2023/05/10 06:56:47;;;;;;;0.75;0.70;;;;;;;;;;5030037;28;20056;-66
2023/05/10 06:59:13;;;;;;;0.52;0.52;;;;;;;;;;5030363;28;20045;-66
2023/05/10 07:01:39;;;;;;;0.80;0.80;;;;;;;;;;5047278;28;20049;-66
2023/05/10 07:04:07;;;;;;;0.30;0.30;;;;;;;;;;5047708;28;20059;-66
2023/05/10 07:06:33;;;;;;;0.50;0.50;;;;;;;;;;5029159;28;20075;-66
2023/05/10 07:08:59;;;;;;;0.35;0.35;;;;;;;;;;5046900;28;20048;-66
2023/05/10 07:11:26;;;;;;;0.30;0.30;;;;;;;;;;5047495;28;20511;-66
2023/05/10 07:13:52;;;;;;;0.20;0.20;;;;;;;;;;5029364;28;20045;-65
2023/05/10 07:16:18;;;;;;;0.20;0.20;;;;;;;;;;5047071;28;20381;-65
2023/05/10 07:18:44;;;;;;;0.20;0.20;;;;;;;;;;5047760;28;20523;-67
2023/05/10 07:21:10;;;;;;;0.20;0.20;;;;;;;;;;5047706;28;20053;-70
2023/05/10 07:23:36;;;;;;;0.20;0.20;;;;;;;;;;5045867;28;20064;-69
2023/05/10 07:26:02;;;;;;;0.20;0.20;;;;;;;;;;5047374;28;20411;-69
2023/05/10 07:28:28;;;;;;;0.35;0.35;;;;;;;;;;5027995;28;20053;-67
2023/05/10 07:30:54;;;;;;;0.68;0.32;;;;;;;;;;5030182;28;20052;-67
2023/05/10 07:33:20;;;;;;;0.95;0.40;;;;;;;;;;5028219;28;20044;-67
2023/05/10 07:35:46;;;;;;;0.60;0.60;;;;;;;;;;5048614;28;20466;-67
2023/05/10 07:38:12;;;;;;;0.30;0.30;;;;;;;;;;5035206;28;20056;-67
2023/05/10 07:40:39;;;;;;;0.30;0.30;;;;;;;;;;5050343;28;20379;-67
2023/05/10 07:43:05;;;;;;;0.28;0.20;;;;;;;;;;5046157;28;20049;-67
2023/05/10 07:45:32;;;;;;;0.52;0.43;;;;;;;;;;5028433;28;20048;-68
2023/05/10 07:47:58;;;;;;;0.30;0.30;;;;;;;;;;5025145;28;20061;-67
2023/05/10 07:50:24;;;;;;;0.30;0.30;;;;;;;;;;5027912;28;20131;-68
2023/05/10 07:52:50;;;;;;;0.70;0.60;;;;;;;;;;5046375;28;20144;-67
2023/05/10 07:55:16;;;;;;;0.80;0.80;;;;;;;;;;5046339;28;20045;-67
2023/05/10 07:57:42;;;;;;;0.65;0.63;;;;;;;;;;5028030;28;20175;-68
2023/05/10 08:00:09;;;;;;;0.32;0.32;;;;;;;;;;5028123;28;20053;-67
2023/05/10 08:02:36;;;;;;;0.50;0.50;;;;;;;;;;5046149;28;20055;-67
2023/05/10 08:05:02;;;;;;;0.40;0.40;;;;;;;;;;5044310;28;20399;-67
2023/05/10 08:07:28;;;;;;;0.47;0.47;;;;;;;;;;5045919;28;20052;-67
2023/05/10 08:09:54;;;;;;;0.20;0.20;;;;;;;;;;5045625;28;20044;-67
2023/05/10 08:12:20;;;;;;;0.70;0.40;;;;;;;;;;5043089;28;20559;-68
2023/05/10 08:14:46;;;;;;;0.60;0.60;;;;;;;;;;5046613;28;20076;-67
2023/05/10 08:17:12;;;;;;;0.43;0.40;;;;;;;;;;5046730;28;20045;-67
2023/05/10 08:19:38;;;;;;;0.40;0.40;;;;;;;;;;5027147;28;20126;-67
2023/05/10 08:22:04;;;;;;;0.57;0.57;;;;;;;;;;5026770;28;20041;-68
2023/05/10 08:24:30;;;;;;;0.98;0.60;;;;;;;;;;5049141;28;20585;-67
2023/05/10 08:26:56;;;;;;;0.70;0.70;;;;;;;;;;5045867;28;20037;-67
2023/05/10 08:29:22;;;;;;;0.68;0.68;;;;;;;;;;5053939;28;20044;-67
2023/05/10 08:31:48;;;;;;;0.60;0.60;;;;;;;;;;5051045;28;20067;-67
2023/05/10 08:34:14;;;;;;;0.50;0.50;;;;;;;;;;5049032;28;20044;-67
2023/05/10 08:36:40;;;;;;;0.47;0.47;;;;;;;;;;5045681;28;20072;-66
2023/05/10 08:39:07;;;;;;;0.75;0.75;;;;;;;;;;5032062;28;20057;-66
2023/05/10 08:41:34;;;;;;;0.70;0.70;;;;;;;;;;5045293;28;20084;-66
2023/05/10 08:44:05;;;;;;;0.80;0.80;;;;;;;;;;5027776;28;20045;-66
2023/05/10 08:46:31;;;;;;;0.70;0.70;;;;;;;;;;5026372;28;20681;-66
2023/05/10 08:48:58;;;;;;;0.93;0.75;;;;;;;;;;5033531;28;20102;-66
2023/05/10 08:51:26;;;;;;;0.63;0.63;;;;;;;;;;5027254;28;20377;-66
2023/05/10 08:53:52;;;;;;;0.60;0.60;;;;;;;;;;5026963;28;20566;-67
2023/05/10 08:56:19;;;;;;;0.50;0.50;;;;;;;;;;5045587;28;20041;-67
2023/05/10 08:58:45;;;;;;;0.40;0.40;;;;;;;;;;5031233;28;20057;-67
2023/05/10 09:01:13;;;;;;;0.30;0.30;;;;;;;;;;5044675;28;20726;-67
2023/05/10 09:03:39;;;;;;;0.65;0.40;;;;;;;;;;5027239;28;20080;-69
2023/05/10 09:06:05;;;;;;;0.30;0.30;;;;;;;;;;5044834;28;20052;-67
2023/05/10 09:08:31;;;;;;;0.45;0.45;;;;;;;;;;5029243;28;20052;-67
2023/05/10 09:10:57;;;;;;;0.60;0.60;;;;;;;;;;5043338;28;20080;-67
2023/05/10 09:13:24;;;;;;;0.60;0.60;;;;;;;;;;5049244;28;20086;-67
2023/05/10 09:15:50;;;;;;;0.50;0.50;;;;;;;;;;5030582;28;20041;-66
2023/05/10 09:18:16;;;;;;;0.38;0.38;;;;;;;;;;5045011;28;20040;-66
2023/05/10 09:20:42;;;;;;;0.40;0.40;;;;;;;;;;5029488;28;20095;-66
2023/05/10 09:23:09;;;;;;;0.50;0.40;;;;;;;;;;5043784;28;20541;-66
2023/05/10 09:25:35;;;;;;;0.68;0.68;;;;;;;;;;5026766;28;20103;-66
2023/05/10 09:28:01;;;;;;;0.65;0.63;;;;;;;;;;5026526;28;20049;-67
2023/05/10 09:30:31;;;;;;;0.52;0.43;;;;;;;;;;5026022;28;20056;-67
2023/05/10 09:32:58;;;;;;;0.55;0.55;;;;;;;;;;5043689;28;20124;-66
2023/05/10 09:35:25;;;;;;;0.60;0.60;;;;;;;;;;5044878;28;20080;-66
2023/05/10 09:37:53;;;;;;;0.45;0.45;;;;;;;;;;5043377;28;20523;-66
2023/05/10 09:40:20;;;;;;;0.55;0.50;;;;;;;;;;5026599;28;20098;-67
2023/05/10 09:43:03;;;;;;;0.30;0.30;;;;;;;;;;5043426;28;20079;-66
2023/05/10 09:45:29;;;;;;;;;;;;;;;;;;5041905;28;20075;-66
2023/05/10 09:47:55;;;;;;;1.20;1.10;;;;;;;;;;5043828;28;20284;-67
2023/05/10 09:50:21;;;;;;;0.73;0.73;;;;;;;;;;5044142;28;20053;-66
2023/05/10 09:52:48;;;;;;;0.73;0.73;;;;;;;;;;5043519;28;20041;-66
2023/05/10 09:55:15;;;;;;;0.80;0.75;;;;;;;;;;5044761;28;20044;-66
2023/05/10 09:57:41;;;;;;;0.80;0.80;;;;;;;;;;5043821;28;20064;-66
2023/05/10 10:00:09;;;;;;;1.20;0.73;;;;;;;;;;5044072;28;20049;-67
2023/05/10 10:02:36;;;;;;;0.50;0.50;;;;;;;;;;5043350;28;20045;-66
2023/05/10 10:05:03;;;;;;;0.40;0.40;;;;;;;;;;5027266;28;20053;-66
2023/05/10 10:07:29;;;;;;;0.40;0.40;;;;;;;;;;5043997;28;20049;-66
2023/05/10 10:09:55;;;;;;;0.43;0.43;;;;;;;;;;5043591;28;20499;-66
2023/05/10 10:12:21;;;;;;;0.70;0.70;;;;;;;;;;5033305;28;20036;-68
2023/05/10 10:14:50;;;;;;;0.65;0.65;;;;;;;;;;5026571;28;20451;-66
2023/05/10 10:17:16;;;;;;;0.75;0.70;;;;;;;;;;5043778;28;20124;-66
2023/05/10 10:19:42;;;;;;;0.70;0.70;;;;;;;;;;5037188;28;20182;-66
2023/05/10 10:22:11;;;;;;;0.70;0.70;;;;;;;;;;5046367;28;20053;-66
2023/05/10 10:24:37;;;;;;;0.82;0.82;;;;;;;;;;5043324;28;20383;-66
2023/05/10 10:27:15;;;;;;;1.05;0.77;;;;;;;;;;5023968;28;20045;-66
2023/05/10 10:30:04;;;;;;;0.80;0.80;;;;;;;;;;5025706;28;20056;-66
2023/05/10 10:32:30;;;;;;;0.70;0.70;;;;;;;;;;5042217;28;20045;-66
2023/05/10 10:34:56;;;;;;;0.90;0.73;;;;;;;;;;5042149;28;20064;-66
2023/05/10 10:37:22;;;;;;;0.57;0.57;;;;;;;;;;5024846;28;20144;-66
2023/05/10 10:39:50;;;;;;;0.70;0.70;;;;;;;;;;5024499;28;20045;-66
2023/05/10 10:42:36;;;;;;;0.80;0.80;;;;;;;;;;5025267;28;20053;-66
2023/05/10 10:45:14;;;;;;;0.50;0.50;;;;;;;;;;5042529;28;20102;-66
2023/05/10 10:47:40;;;;;;;0.65;0.50;;;;;;;;;;5043305;28;20128;-67
2023/05/10 10:50:12;;;;;;;0.70;0.68;;;;;;;;;;5044127;28;20095;-66
2023/05/10 10:52:39;;;;;;;1.20;1.10;;;;;;;;;;5026708;28;20053;-66
2023/05/10 10:55:23;;;;;;;2.28;2.08;;;;;;;;;;5025906;28;20076;-66
2023/05/10 10:58:02;;;;;;;1.60;1.50;;;;;;;;;;5044251;28;20056;-66
2023/05/10 11:00:32;;;;;;;1.38;1.27;;;;;;;;;;5025974;28;20051;-66
2023/05/10 11:02:59;;;;;;;1.17;1.08;;;;;;;;;;5043897;28;20447;-66
2023/05/10 11:05:44;;;;;;;2.10;1.90;;;;;;;;;;5046744;28;20051;-66
2023/05/10 11:08:16;;;;;;;1.92;1.77;;;;;;;;;;5029381;28;20095;-66
2023/05/10 11:10:42;;;;;;;;;;;;;;;;;;5030446;28;20335;-66
2023/05/10 11:13:09;;;;;;;2.42;2.22;;;;;;;;;;5047616;28;20366;-66
2023/05/10 11:15:39;;;;;;;1.90;1.67;;;;;;;;;;5029081;28;20057;-66
2023/05/10 11:18:17;;;;;;;1.63;1.52;;;;;;;;;;5047328;28;20399;-66
2023/05/10 11:20:44;;;;;;;1.40;1.30;;;;;;;;;;5030073;28;20049;-66
2023/05/10 11:23:15;;;;;;;1.52;1.42;;;;;;;;;;5046743;28;20541;-66
2023/05/10 11:25:45;;;;;;;1.98;1.45;;;;;;;;;;5030047;28;20052;-66
2023/05/10 11:28:12;;;;;;;1.45;1.35;;;;;;;;;;5047246;28;20124;-66
2023/05/10 11:30:41;;;;;;;1.17;1.10;;;;;;;;;;5047292;28;20059;-66
2023/05/10 11:33:08;;;;;;;1.40;1.30;;;;;;;;;;5029266;28;20365;-66
2023/05/10 11:35:39;;;;;;;1.92;1.83;;;;;;;;;;5046859;28;20060;-66
2023/05/10 11:38:06;;;;;;;1.35;1.20;;;;;;;;;;5047000;28;20044;-66
2023/05/10 11:40:32;;;;;;;2.28;1.65;;;;;;;;;;5047532;28;20045;-66
2023/05/10 11:42:58;;;;;;;1.65;1.55;;;;;;;;;;5046423;28;20048;-66
2023/05/10 11:45:24;;;;;;;2.65;2.45;;;;;;;;;;5029732;28;20391;-66
2023/05/10 11:47:50;;;;;;;2.50;2.30;;;;;;;;;;5029131;28;20069;-66
2023/05/10 11:50:17;;;;;;;1.70;1.60;;;;;;;;;;5046437;28;20449;-66
2023/05/10 11:52:43;;;;;;;1.95;1.85;;;;;;;;;;5047212;28;20037;-66
2023/05/10 11:55:09;;;;;;;1.33;1.20;;;;;;;;;;5028897;28;20045;-66
2023/05/10 11:57:38;;;;;;;1.50;1.40;;;;;;;;;;5028334;28;20056;-66
2023/05/10 12:00:05;;;;;;;1.73;1.63;;;;;;;;;;5046867;28;20071;-66
2023/05/10 12:02:31;;;;;;;1.75;1.65;;;;;;;;;;5028957;28;20049;-66
2023/05/10 12:04:57;;;;;;;1.40;1.30;;;;;;;;;;5045864;28;20049;-66
2023/05/10 12:07:23;;;;;;;1.80;1.70;;;;;;;;;;5046732;28;20041;-66
2023/05/10 12:10:09;;;;;;;1.55;1.45;;;;;;;;;;5028908;28;20080;-66
2023/05/10 12:12:44;;;;;;;1.13;1.02;;;;;;;;;;5046026;28;20562;-66
2023/05/10 12:15:11;;;;;;;1.73;1.20;;;;;;;;;;5046468;28;20450;-66
2023/05/10 12:17:39;;;;;;;1.10;1.10;;;;;;;;;;5028003;28;20099;-66
2023/05/10 12:20:18;;;;;;;1.13;1.05;;;;;;;;;;5028289;28;20056;-66
2023/05/10 12:22:45;;;;;;;1.85;1.75;;;;;;;;;;5028806;28;20067;-66
2023/05/10 12:25:11;;;;;;;1.77;1.67;;;;;;;;;;5028272;28;20049;-66
2023/05/10 12:27:37;;;;;;;1.60;1.50;;;;;;;;;;5046703;28;20049;-66
2023/05/10 12:30:03;;;;;;;1.15;1.10;;;;;;;;;;5028255;28;20076;-67
2023/05/10 12:32:42;;;;;;;1.35;1.25;;;;;;;;;;5028303;28;20479;-66
2023/05/10 12:35:08;;;;;;;2.22;1.50;;;;;;;;;;5045890;28;20072;-66
2023/05/10 12:37:38;;;;;;;1.60;1.50;;;;;;;;;;5046138;28;20515;-66
2023/05/10 12:40:06;;;;;;;1.48;1.38;;;;;;;;;;5027506;28;20084;-66
2023/05/10 12:42:32;;;;;;;2.25;2.05;;;;;;;;;;5045976;28;20115;-66
2023/05/10 12:44:58;;;;;;;1.60;1.50;;;;;;;;;;5027755;28;20087;-66
2023/05/10 12:47:24;;;;;;;1.73;1.63;;;;;;;;;;5045205;28;20052;-66
2023/05/10 12:49:51;;;;;;;1.70;1.60;;;;;;;;;;5027945;28;20149;-67
2023/05/10 12:52:17;;;;;;;2.05;1.95;;;;;;;;;;5046130;28;20071;-67
2023/05/10 12:54:43;;;;;;;2.00;1.90;;;;;;;;;;5045404;28;20132;-66
2023/05/10 12:57:09;;;;;;;2.60;2.40;;;;;;;;;;5045572;28;20124;-66
2023/05/10 12:59:35;;;;;;;1.92;1.83;;;;;;;;;;5026941;28;20368;-66
2023/05/10 13:02:01;;;;;;;1.40;1.25;;;;;;;;;;5027606;28;20041;-67
2023/05/10 13:04:27;;;;;;;1.50;1.40;;;;;;;;;;5045720;28;20481;-67
2023/05/10 13:06:55;;;;;;;1.50;1.40;;;;;;;;;;5044969;28;20668;-66
2023/05/10 13:09:22;;;;;;;1.45;1.35;;;;;;;;;;5027224;28;20511;-65
2023/05/10 13:11:49;;;;;;;1.67;1.58;;;;;;;;;;5053675;28;20120;-65
2023/05/10 13:14:15;;;;;;;1.15;1.05;;;;;;;;;;5025661;28;20048;-65
2023/05/10 13:16:41;;;;;;;1.55;1.45;;;;;;;;;;5045403;28;20045;-65
2023/05/10 13:19:07;;;;;;;1.60;1.50;;;;;;;;;;5012613;28;20609;-65
2023/05/10 13:21:33;;;;;;;1.30;1.20;;;;;;;;;;5013593;28;20060;-65
2023/05/10 13:24:00;;;;;;;1.50;1.40;;;;;;;;;;5024958;28;20045;-64
2023/05/10 13:26:26;;;;;;;1.75;1.65;;;;;;;;;;5006869;28;20049;-64
2023/05/10 13:28:52;;;;;;;1.25;1.20;;;;;;;;;;5024602;28;20061;-65
2023/05/10 13:31:18;;;;;;;1.48;1.20;;;;;;;;;;5025321;28;20065;-65
2023/05/10 13:33:44;;;;;;;1.05;1.05;;;;;;;;;;5040624;28;20608;-65
2023/05/10 13:36:10;;;;;;;1.17;1.08;;;;;;;;;;5044482;28;20045;-65
2023/05/10 13:38:36;;;;;;;1.00;1.00;;;;;;;;;;5044914;28;20382;-65
2023/05/10 13:41:02;;;;;;;1.70;1.60;;;;;;;;;;5021937;28;20506;-65
2023/05/10 13:43:29;;;;;;;1.77;1.67;;;;;;;;;;5038003;28;20045;-67
2023/05/10 13:45:55;;;;;;;1.60;1.50;;;;;;;;;;5020115;28;20037;-70
2023/05/10 13:48:21;;;;;;;2.05;1.95;;;;;;;;;;5046159;28;20099;-67
2023/05/10 13:50:47;;;;;;;1.95;1.70;;;;;;;;;;5031886;28;20050;-67
2023/05/10 13:53:14;;;;;;;2.13;2.03;;;;;;;;;;5040309;28;20500;-67
2023/05/10 13:55:40;;;;;;;1.63;1.52;;;;;;;;;;5042430;28;20116;-67
2023/05/10 13:58:06;;;;;;;2.33;2.13;;;;;;;;;;5031905;28;20464;-67
2023/05/10 14:00:32;;;;;;;1.70;1.60;;;;;;;;;;5042230;28;20068;-67
2023/05/10 14:02:58;;;;;;;2.25;2.05;;;;;;;;;;5014237;28;20042;-67
2023/05/10 14:05:24;;;;;;;1.73;1.63;;;;;;;;;;5038609;28;20041;-67
2023/05/10 14:07:50;;;;;;;1.50;1.40;;;;;;;;;;5024593;28;20464;-67
2023/05/10 14:10:16;;;;;;;1.73;1.63;;;;;;;;;;5023150;28;20396;-67
2023/05/10 14:12:42;;;;;;;1.90;1.80;;;;;;;;;;5013465;28;20447;-67
2023/05/10 14:15:10;;;;;;;2.25;2.05;;;;;;;;;;5033728;28;20041;-67
2023/05/10 14:17:36;;;;;;;1.73;1.63;;;;;;;;;;5033850;28;20048;-67
2023/05/10 14:20:03;;;;;;;2.85;2.65;;;;;;;;;;5020980;28;20048;-67
2023/05/10 14:22:29;;;;;;;1.90;1.80;;;;;;;;;;5033331;28;20533;-66
2023/05/10 14:24:56;;;;;;;1.73;1.63;;;;;;;;;;5041434;28;20052;-67
2023/05/10 14:27:22;;;;;;;1.85;1.75;;;;;;;;;;5026796;28;20616;-67
2023/05/10 14:29:48;;;;;;;3.13;2.40;;;;;;;;;;5026463;28;20075;-67
2023/05/10 14:32:14;;;;;;;2.08;1.98;;;;;;;;;;5043349;28;20045;-67
2023/05/10 14:34:40;;;;;;;2.95;2.65;;;;;;;;;;5043092;28;20045;-67
2023/05/10 14:37:06;;;;;;;2.17;2.08;;;;;;;;;;5024693;28;20449;-67
2023/05/10 14:39:32;;;;;;;1.80;1.70;;;;;;;;;;5027970;28;20057;-67
2023/05/10 14:41:58;;;;;;;2.60;2.40;;;;;;;;;;5045910;28;20047;-67
2023/05/10 14:44:24;;;;;;;2.47;2.28;;;;;;;;;;5046543;28;20041;-67